Time;durP1;ratioP1;P1;durP2;ratioP2;P2;SDS_P1;SDS_P2;PMS_P1;PMS_P2;Temp;Humidity;BMP_temperature;BMP_pressure;BME280_temperature;BME280_humidity;BME280_pressure;Samples;Min_cycle;Max_cycle;Signal;HPM_P1;HPM_P2
2022/05/26 00:00:12;;;;;;;0.30;0.20;;;10.30;99.90;;;;;;5084901;28;20916;-85
2022/05/26 00:02:41;;;;;;;0.30;0.20;;;10.30;99.90;;;;;;5081465;28;20553;-83
2022/05/26 00:05:09;;;;;;;0.30;0.20;;;10.40;99.90;;;;;;5075389;28;20489;-86
2022/05/26 00:07:38;;;;;;;0.30;0.20;;;10.40;99.90;;;;;;5081172;28;20460;-85
2022/05/26 00:10:06;;;;;;;0.30;0.20;;;10.40;99.90;;;;;;5089301;28;20448;-85
2022/05/26 00:12:34;;;;;;;0.30;0.20;;;10.40;99.90;;;;;;5083102;28;20491;-84
2022/05/26 00:15:01;;;;;;;0.30;0.20;;;10.40;99.90;;;;;;5084587;28;20788;-87
2022/05/26 00:17:29;;;;;;;0.30;0.20;;;10.40;99.90;;;;;;5089453;28;20522;-86
2022/05/26 00:19:58;;;;;;;0.30;0.20;;;10.30;99.90;;;;;;5085665;28;20463;-84
2022/05/26 00:22:26;;;;;;;0.30;0.20;;;10.40;99.90;;;;;;5072340;28;20929;-84
2022/05/26 00:24:54;;;;;;;0.30;0.20;;;10.40;99.90;;;;;;5085517;28;20944;-85
2022/05/26 00:27:21;;;;;;;0.30;0.20;;;10.40;99.90;;;;;;5084925;28;20978;-85
2022/05/26 00:29:48;;;;;;;0.30;0.20;;;10.30;99.90;;;;;;5084115;28;20541;-85
2022/05/26 00:32:16;;;;;;;0.30;0.20;;;10.20;99.90;;;;;;5086137;28;20679;-84
2022/05/26 00:34:43;;;;;;;0.30;0.20;;;10.20;99.90;;;;;;5084220;28;20505;-84
2022/05/26 00:37:12;;;;;;;0.30;0.10;;;10.20;99.90;;;;;;5085235;28;20471;-86
2022/05/26 00:39:40;;;;;;;0.30;0.20;;;10.10;99.90;;;;;;5085004;28;20545;-84
2022/05/26 00:42:08;;;;;;;0.30;0.20;;;10.10;99.90;;;;;;5085194;28;20485;-85
2022/05/26 00:44:36;;;;;;;0.30;0.20;;;10.10;99.90;;;;;;5084394;28;20451;-87
2022/05/26 00:47:09;;;;;;;0.30;0.20;;;10.10;99.90;;;;;;5094051;28;20462;-84
2022/05/26 00:49:41;;;;;;;0.30;0.20;;;10.10;99.90;;;;;;5078696;28;20462;-83
2022/05/26 00:52:16;;;;;;;0.30;0.20;;;10.00;99.90;;;;;;5087698;28;20810;-84
2022/05/26 00:54:46;;;;;;;0.30;0.20;;;10.00;99.90;;;;;;5079312;28;20473;-83
2022/05/26 00:57:18;;;;;;;0.30;0.20;;;10.00;99.90;;;;;;5083991;28;20675;-83
2022/05/26 00:59:50;;;;;;;0.30;0.20;;;9.90;99.90;;;;;;5079603;28;20478;-86
2022/05/26 01:02:21;;;;;;;0.30;0.20;;;9.90;99.90;;;;;;5086343;28;20545;-82
2022/05/26 01:04:55;;;;;;;0.30;0.20;;;10.00;99.90;;;;;;5084524;28;20467;-84
2022/05/26 01:07:26;;;;;;;0.30;0.20;;;10.00;99.90;;;;;;5084922;28;20898;-83
2022/05/26 01:09:53;;;;;;;0.30;0.20;;;9.90;99.90;;;;;;5084045;28;20455;-84
2022/05/26 01:12:24;;;;;;;0.30;0.20;;;9.90;99.90;;;;;;5084930;28;20478;-84
2022/05/26 01:14:56;;;;;;;0.30;0.20;;;10.00;99.90;;;;;;5084062;28;20451;-85
2022/05/26 01:17:39;;;;;;;0.30;0.17;;;10.00;99.90;;;;;;5079176;28;20571;-83
2022/05/26 01:20:36;;;;;;;0.30;0.20;;;10.00;99.90;;;;;;5082244;28;20459;-86
2022/05/26 01:24:01;;;;;;;0.30;0.20;;;10.00;99.90;;;;;;5083201;28;20565;-83
2022/05/26 01:27:23;;;;;;;0.30;0.20;;;10.00;99.90;;;;;;5082438;28;20456;-83
2022/05/26 01:30:18;;;;;;;0.30;0.10;;;9.90;99.90;;;;;;5083918;28;20451;-85
2022/05/26 01:33:09;;;;;;;0.30;0.20;;;9.90;99.90;;;;;;5083149;28;20471;-83
2022/05/26 01:35:42;;;;;;;0.30;0.20;;;9.90;99.90;;;;;;5085085;28;20450;-85
2022/05/26 01:38:21;;;;;;;0.30;0.20;;;9.90;99.90;;;;;;5082702;28;20464;-83
2022/05/26 01:40:56;;;;;;;0.30;0.10;;;9.80;99.90;;;;;;5085186;28;20929;-84
2022/05/26 01:43:34;;;;;;;0.30;0.20;;;9.80;99.90;;;;;;5084965;28;20871;-83
2022/05/26 01:46:10;;;;;;;0.30;0.20;;;9.80;99.90;;;;;;5085978;28;20942;-86
2022/05/26 01:48:47;;;;;;;0.30;0.20;;;9.80;99.90;;;;;;5085822;28;20470;-83
2022/05/26 01:51:19;;;;;;;1.23;1.13;;;9.90;99.90;;;;;;5086145;28;20485;-85
2022/05/26 01:53:54;;;;;;;0.30;0.20;;;10.00;99.90;;;;;;5077677;28;20482;-85
2022/05/26 01:56:27;;;;;;;0.30;0.20;;;9.80;99.90;;;;;;5084873;28;20435;-83
2022/05/26 01:59:01;;;;;;;0.30;0.20;;;9.90;99.90;;;;;;5084918;28;20469;-86
2022/05/26 02:01:32;;;;;;;0.30;0.20;;;9.80;99.90;;;;;;5087120;28;20465;-85
2022/05/26 02:04:03;;;;;;;0.30;0.13;;;9.70;99.90;;;;;;5081659;28;20545;-83
2022/05/26 02:06:33;;;;;;;0.30;0.20;;;9.70;99.90;;;;;;5088725;28;20504;-86
2022/05/26 02:09:09;;;;;;;0.30;0.20;;;9.80;99.90;;;;;;5080143;28;20463;-85
2022/05/26 02:11:42;;;;;;;0.30;0.20;;;9.70;99.90;;;;;;5085500;28;20462;-86
2022/05/26 02:14:14;;;;;;;0.30;0.20;;;9.70;99.90;;;;;;5086631;28;20965;-84
2022/05/26 02:16:48;;;;;;;0.30;0.20;;;9.60;99.90;;;;;;5085125;28;20443;-84
2022/05/26 02:19:22;;;;;;;0.30;0.20;;;9.70;99.90;;;;;;5094850;28;20462;-83
2022/05/26 02:22:01;;;;;;;0.30;0.20;;;9.60;99.90;;;;;;5083366;28;21510;-83
2022/05/26 02:24:34;;;;;;;0.30;0.20;;;9.60;99.90;;;;;;5085441;28;20488;-83
2022/05/26 02:27:03;;;;;;;0.30;0.20;;;9.60;99.90;;;;;;5087355;28;20462;-86
2022/05/26 02:32:21;;;;;;;0.30;0.20;;;9.50;99.90;;;;;;5083619;28;20913;-84
2022/05/26 02:34:52;;;;;;;0.30;0.20;;;9.50;99.90;;;;;;5090425;28;20458;-83
2022/05/26 02:37:21;;;;;;;0.30;0.20;;;9.50;99.90;;;;;;5083492;28;20469;-83
2022/05/26 02:39:49;;;;;;;0.30;0.20;;;9.50;99.90;;;;;;5093623;28;20454;-83
2022/05/26 02:42:17;;;;;;;0.30;0.20;;;9.40;99.90;;;;;;5090138;28;20462;-83
2022/05/26 02:44:45;;;;;;;0.30;0.20;;;9.40;99.90;;;;;;5087028;28;20474;-83
2022/05/26 02:47:39;;;;;;;0.30;0.20;;;9.40;99.90;;;;;;5092469;28;20475;-84
2022/05/26 02:50:19;;;;;;;0.30;0.13;;;9.40;99.90;;;;;;5077723;28;20568;-85
2022/05/26 02:52:57;;;;;;;0.30;0.20;;;9.40;99.90;;;;;;5088002;28;20506;-83
2022/05/26 02:55:37;;;;;;;0.30;0.10;;;9.30;99.90;;;;;;5086988;28;20466;-81
2022/05/26 02:58:14;;;;;;;0.30;0.20;;;9.30;99.90;;;;;;5090279;28;20536;-89
2022/05/26 03:00:51;;;;;;;0.30;0.20;;;9.30;99.90;;;;;;5087284;28;20490;-83
2022/05/26 03:03:25;;;;;;;0.30;0.20;;;9.40;99.90;;;;;;5083741;28;20473;-86
2022/05/26 03:06:00;;;;;;;0.30;0.17;;;9.40;99.90;;;;;;5085916;28;20868;-87
2022/05/26 03:08:30;;;;;;;0.30;0.20;;;9.40;99.90;;;;;;5085752;28;20960;-87
2022/05/26 03:11:06;;;;;;;0.30;0.20;;;9.40;99.90;;;;;;5078206;28;20459;-88
2022/05/26 03:13:34;;;;;;;0.30;0.20;;;9.40;99.90;;;;;;5086798;28;20489;-86
2022/05/26 03:16:01;;;;;;;0.30;0.20;;;9.50;99.90;;;;;;5093294;28;20446;-85
2022/05/26 03:18:30;;;;;;;0.30;0.20;;;9.50;99.90;;;;;;5090021;28;20455;-86
2022/05/26 03:21:00;;;;;;;0.30;0.20;;;9.50;99.90;;;;;;5086534;28;20459;-86
2022/05/26 03:23:28;;;;;;;0.30;0.20;;;9.50;99.90;;;;;;5085060;28;20498;-86
2022/05/26 03:25:57;;;;;;;0.30;0.20;;;9.50;99.90;;;;;;5085743;28;20459;-86
2022/05/26 03:28:25;;;;;;;0.30;0.20;;;9.50;99.90;;;;;;5079664;28;20459;-89
2022/05/26 03:30:52;;;;;;;0.30;0.20;;;9.50;99.90;;;;;;5086973;28;20511;-86
2022/05/26 03:33:20;;;;;;;0.30;0.20;;;9.60;99.90;;;;;;5086507;28;20475;-86
2022/05/26 03:41:21;;;;;;;0.30;0.20;;;9.80;99.90;;;;;;5081459;28;20959;-86
2022/05/26 03:43:57;;;;;;;0.30;0.20;;;9.80;99.90;;;;;;5086631;28;20538;-86
2022/05/26 03:46:25;;;;;;;0.30;0.20;;;9.70;99.90;;;;;;5084290;28;20573;-87
2022/05/26 03:48:53;;;;;;;0.30;0.10;;;9.80;99.90;;;;;;5087081;28;20490;-89
2022/05/26 03:51:20;;;;;;;0.30;0.10;;;10.00;99.90;;;;;;5084008;28;20498;-89
2022/05/26 03:53:53;;;;;;;0.30;0.20;;;10.10;99.90;;;;;;5083040;28;20579;-88
2022/05/26 03:56:20;;;;;;;0.30;0.20;;;10.10;99.90;;;;;;5088544;28;20442;-88
2022/05/26 03:58:48;;;;;;;0.30;0.20;;;10.10;99.90;;;;;;5084737;28;20459;-88
2022/05/26 04:01:16;;;;;;;0.30;0.10;;;10.10;99.90;;;;;;5088137;28;20465;-87
2022/05/26 04:03:43;;;;;;;0.30;0.20;;;10.00;99.90;;;;;;5087825;28;20463;-89
2022/05/26 04:06:10;;;;;;;0.30;0.20;;;10.10;99.90;;;;;;5077760;28;21216;-87
2022/05/26 04:08:38;;;;;;;0.30;0.10;;;10.00;99.90;;;;;;5086347;28;21144;-89
2022/05/26 04:11:07;;;;;;;0.30;0.20;;;10.10;99.90;;;;;;5086981;28;21180;-88
2022/05/26 04:13:35;;;;;;;0.30;0.17;;;10.20;99.90;;;;;;5089248;28;20666;-89
2022/05/26 04:16:02;;;;;;;0.30;0.20;;;10.20;99.90;;;;;;5096465;28;20456;-88
2022/05/26 04:18:30;;;;;;;0.30;0.20;;;10.30;99.90;;;;;;5104289;28;20463;-87
2022/05/26 04:21:05;;;;;;;0.30;0.20;;;10.60;99.90;;;;;;5099888;28;20459;-89
2022/05/26 04:23:33;;;;;;;0.30;0.20;;;10.80;99.90;;;;;;5085520;28;20474;-87
2022/05/26 04:26:01;;;;;;;0.30;0.17;;;10.90;99.90;;;;;;5087275;28;20459;-87
2022/05/26 04:28:30;;;;;;;0.30;0.20;;;11.00;99.90;;;;;;5097460;28;21017;-89
2022/05/26 04:30:58;;;;;;;0.30;0.20;;;11.20;99.90;;;;;;5088172;28;20450;-90
2022/05/26 04:33:28;;;;;;;0.30;0.20;;;11.20;99.90;;;;;;5097225;28;20487;-89
2022/05/26 04:35:56;;;;;;;0.30;0.20;;;11.40;99.90;;;;;;5087925;28;20459;-90
2022/05/26 04:38:24;;;;;;;0.30;0.20;;;11.60;99.90;;;;;;5086650;28;21140;-88
2022/05/26 04:40:58;;;;;;;0.30;0.20;;;11.50;99.90;;;;;;5081033;28;20451;-89
2022/05/26 04:43:25;;;;;;;0.30;0.20;;;11.60;99.90;;;;;;5083998;28;20460;-88
2022/05/26 04:45:54;;;;;;;0.30;0.20;;;11.60;99.90;;;;;;5082484;28;21114;-89
2022/05/26 04:48:22;;;;;;;0.30;0.20;;;11.60;99.90;;;;;;5084702;28;20996;-88
2022/05/26 04:50:50;;;;;;;0.30;0.20;;;11.70;99.90;;;;;;5088990;28;20440;-89
2022/05/26 04:53:18;;;;;;;0.30;0.20;;;11.90;99.90;;;;;;5085898;28;20482;-91
2022/05/26 04:55:46;;;;;;;0.30;0.20;;;11.90;99.90;;;;;;5074553;28;20466;-88
2022/05/26 04:58:14;;;;;;;0.30;0.20;;;12.00;99.90;;;;;;5085191;28;20468;-89
2022/05/26 05:00:41;;;;;;;0.40;0.20;;;11.90;99.90;;;;;;5083313;28;20457;-88
2022/05/26 05:03:10;;;;;;;0.30;0.20;;;12.10;99.90;;;;;;5078382;28;20485;-88
2022/05/26 05:05:38;;;;;;;0.30;0.20;;;12.20;99.90;;;;;;5080168;28;21144;-90
2022/05/26 05:08:06;;;;;;;0.30;0.20;;;12.20;99.90;;;;;;5082895;28;20450;-88
2022/05/26 05:10:34;;;;;;;0.30;0.20;;;12.30;99.90;;;;;;5078060;28;20469;-88
2022/05/26 05:13:01;;;;;;;0.30;0.20;;;12.30;99.90;;;;;;5077600;28;21004;-88
2022/05/26 05:15:35;;;;;;;0.30;0.20;;;12.40;99.90;;;;;;5076706;28;20463;-88
2022/05/26 05:18:03;;;;;;;0.30;0.20;;;12.40;99.90;;;;;;5091307;28;20454;-89
2022/05/26 05:20:35;;;;;;;0.30;0.10;;;12.60;99.90;;;;;;5103477;28;20452;-88
2022/05/26 05:23:05;;;;;;;0.30;0.20;;;12.80;99.90;;;;;;5105133;28;20502;-89
2022/05/26 05:25:38;;;;;;;0.30;0.20;;;13.00;99.90;;;;;;5100041;28;20446;-87
2022/05/26 05:28:10;;;;;;;0.30;0.20;;;13.10;99.90;;;;;;5096822;28;20470;-91
2022/05/26 05:30:42;;;;;;;0.30;0.20;;;13.10;99.90;;;;;;5101318;28;20451;-88
2022/05/26 05:33:13;;;;;;;0.30;0.20;;;13.40;99.90;;;;;;5102741;28;20551;-88
2022/05/26 05:35:46;;;;;;;0.30;0.20;;;13.60;99.90;;;;;;5107032;28;20518;-89
2022/05/26 05:38:14;;;;;;;12.00;0.77;;;13.80;99.90;;;;;;5106623;28;20482;-87
2022/05/26 05:40:41;;;;;;;0.30;0.20;;;13.90;99.90;;;;;;5108573;28;20824;-88
2022/05/26 05:43:09;;;;;;;0.30;0.20;;;13.70;99.90;;;;;;5105356;28;20459;-87
2022/05/26 05:45:39;;;;;;;0.30;0.20;;;13.50;99.90;;;;;;5103366;28;20466;-86
2022/05/26 05:48:07;;;;;;;0.30;0.20;;;13.30;99.90;;;;;;5085825;28;20472;-87
2022/05/26 05:50:35;;;;;;;0.30;0.20;;;13.50;99.90;;;;;;5080627;28;20461;-88
2022/05/26 05:53:04;;;;;;;0.30;0.20;;;13.60;99.90;;;;;;5085356;28;21034;-89
2022/05/26 05:55:32;;;;;;;0.30;0.20;;;13.90;99.90;;;;;;5087478;28;20454;-89
2022/05/26 05:58:00;;;;;;;0.30;0.20;;;14.30;99.90;;;;;;5079783;28;20917;-88
2022/05/26 06:00:27;;;;;;;0.30;0.20;;;14.70;99.90;;;;;;5093631;28;20933;-90
2022/05/26 06:02:57;;;;;;;0.30;0.20;;;14.80;99.90;;;;;;5087681;28;20463;-89
2022/05/26 06:05:25;;;;;;;0.30;0.20;;;14.70;99.90;;;;;;5078656;28;20934;-88
2022/05/26 06:07:52;;;;;;;0.30;0.20;;;15.00;99.90;;;;;;5082332;28;20460;-89
2022/05/26 06:10:22;;;;;;;0.30;0.20;;;15.20;99.90;;;;;;5081299;28;20467;-87
2022/05/26 06:12:49;;;;;;;0.30;0.20;;;15.20;99.90;;;;;;5082448;28;20577;-89
2022/05/26 06:15:17;;;;;;;0.30;0.20;;;15.50;99.90;;;;;;5082827;28;20486;-88
2022/05/26 06:17:45;;;;;;;0.30;0.20;;;16.00;99.90;;;;;;5081918;28;21078;-88
2022/05/26 06:20:13;;;;;;;0.30;0.20;;;16.60;99.90;;;;;;5086555;28;20896;-88
2022/05/26 06:22:42;;;;;;;0.30;0.20;;;17.00;99.90;;;;;;5084733;28;21261;-88
2022/05/26 06:25:10;;;;;;;0.30;0.20;;;17.10;99.90;;;;;;5088867;28;20456;-90
2022/05/26 06:30:26;;;;;;;0.30;0.20;;;16.90;99.90;;;;;;5080979;28;20442;-89
2022/05/26 06:38:30;;;;;;;0.30;0.20;;;17.30;99.90;;;;;;5086264;28;20418;-91
2022/05/26 06:42:05;;;;;;;0.30;0.20;;;17.50;99.90;;;;;;5087376;28;20532;-88
2022/05/26 06:43:47;;;;;;;0.30;0.20;;;17.30;99.90;;;;;;5087694;28;20479;-88
2022/05/26 06:46:15;;;;;;;0.30;0.20;;;17.20;99.90;;;;;;5082065;28;20458;-88
2022/05/26 06:48:43;;;;;;;0.30;0.20;;;17.20;99.90;;;;;;5080619;28;21025;-88
2022/05/26 06:51:12;;;;;;;0.30;0.20;;;17.30;99.90;;;;;;5088781;28;20597;-90
2022/05/26 06:53:42;;;;;;;0.30;0.20;;;17.40;99.90;;;;;;5084798;28;20508;-88
2022/05/26 06:56:13;;;;;;;0.30;0.20;;;17.40;99.90;;;;;;5078973;28;20616;-90
2022/05/26 06:58:40;;;;;;;0.30;0.20;;;17.30;99.90;;;;;;5080690;28;20474;-89
2022/05/26 07:01:11;;;;;;;0.30;0.20;;;17.40;99.90;;;;;;5082848;28;20466;-89
2022/05/26 07:03:39;;;;;;;0.30;0.20;;;17.50;99.90;;;;;;5084560;28;20813;-89
2022/05/26 07:06:14;;;;;;;0.30;0.20;;;17.70;99.90;;;;;;5078825;28;20463;-90
2022/05/26 07:08:41;;;;;;;0.30;0.20;;;17.90;99.90;;;;;;5083482;28;20472;-89
2022/05/26 07:11:09;;;;;;;0.30;0.20;;;18.00;99.90;;;;;;5086620;28;20873;-90
2022/05/26 07:13:36;;;;;;;0.30;0.20;;;17.40;99.90;;;;;;5085826;28;20458;-87
2022/05/26 07:16:07;;;;;;;0.30;0.20;;;17.20;99.90;;;;;;5083792;28;20459;-91
2022/05/26 07:18:35;;;;;;;0.30;0.20;;;17.50;99.90;;;;;;5077383;28;20843;-87
2022/05/26 07:21:04;;;;;;;0.30;0.20;;;17.70;99.90;;;;;;5086694;28;20894;-88
2022/05/26 07:23:32;;;;;;;0.30;0.20;;;17.90;99.90;;;;;;5082206;28;20505;-87
2022/05/26 07:25:59;;;;;;;0.30;0.20;;;17.90;99.90;;;;;;5082533;28;20451;-88
2022/05/26 07:28:27;;;;;;;0.30;0.30;;;17.60;99.90;;;;;;5082524;28;20476;-90
2022/05/26 07:30:54;;;;;;;0.30;0.20;;;17.90;99.90;;;;;;5081376;28;20475;-88
2022/05/26 07:33:21;;;;;;;0.30;0.20;;;18.30;99.90;;;;;;5084007;28;20512;-90
2022/05/26 07:35:50;;;;;;;0.30;0.30;;;18.90;99.90;;;;;;5080382;28;20913;-88
2022/05/26 07:41:17;;;;;;;0.30;0.20;;;19.20;99.90;;;;;;5079506;28;20507;-89
2022/05/26 07:43:49;;;;;;;0.30;0.20;;;18.70;99.90;;;;;;5083763;28;20466;-90
2022/05/26 07:46:20;;;;;;;0.30;0.20;;;18.30;99.90;;;;;;5082738;28;20852;-88
2022/05/26 07:48:48;;;;;;;0.30;0.20;;;17.80;99.90;;;;;;5089262;28;20487;-88
2022/05/26 07:51:19;;;;;;;0.30;0.20;;;18.00;99.90;;;;;;5084854;28;20504;-90
2022/05/26 07:53:47;;;;;;;0.30;0.20;;;18.40;99.90;;;;;;5084523;28;20467;-88
2022/05/26 07:56:15;;;;;;;0.30;0.20;;;18.60;99.90;;;;;;5091940;28;20552;-87
2022/05/26 07:58:43;;;;;;;0.57;0.40;;;18.40;99.90;;;;;;5098659;28;20485;-86
2022/05/26 08:01:11;;;;;;;0.30;0.20;;;18.20;99.90;;;;;;5097677;28;20446;-86
2022/05/26 08:03:38;;;;;;;0.30;0.20;;;17.90;99.90;;;;;;5097805;28;20455;-85
2022/05/26 08:06:06;;;;;;;0.30;0.20;;;18.20;99.90;;;;;;5090538;28;20959;-86
2022/05/26 08:08:37;;;;;;;0.30;0.20;;;18.60;99.90;;;;;;5080612;28;20490;-87
2022/05/26 08:11:04;;;;;;;0.30;0.20;;;18.90;99.90;;;;;;5081997;28;20966;-85
2022/05/26 08:13:32;;;;;;;0.30;0.20;;;19.20;99.90;;;;;;5075394;28;20461;-87
2022/05/26 08:15:59;;;;;;;0.30;0.20;;;18.90;99.90;;;;;;5083462;28;20524;-86
2022/05/26 08:18:27;;;;;;;0.30;0.20;;;18.90;99.90;;;;;;5082352;28;20478;-87
2022/05/26 08:20:54;;;;;;;0.30;0.20;;;18.60;99.90;;;;;;5077556;28;20451;-86
2022/05/26 08:23:25;;;;;;;0.30;0.30;;;18.30;99.90;;;;;;5084241;28;20506;-85
2022/05/26 08:25:54;;;;;;;1.27;0.63;;;18.40;99.90;;;;;;5085088;28;20558;-87
2022/05/26 08:28:22;;;;;;;0.30;0.20;;;18.70;99.90;;;;;;5080622;28;20459;-87
2022/05/26 08:30:49;;;;;;;0.30;0.20;;;19.00;99.90;;;;;;5079410;28;20453;-86
2022/05/26 08:33:17;;;;;;;0.30;0.20;;;19.30;99.90;;;;;;5082643;28;20458;-86
2022/05/26 08:35:44;;;;;;;0.50;0.30;;;19.60;99.90;;;;;;5083969;28;20823;-85
2022/05/26 08:38:12;;;;;;;0.30;0.20;;;20.00;99.90;;;;;;5085069;28;20462;-88
2022/05/26 08:40:43;;;;;;;0.40;0.30;;;20.30;99.90;;;;;;5085843;28;20933;-85
2022/05/26 08:43:17;;;;;;;0.30;0.20;;;20.20;98.20;;;;;;5084451;28;20838;-86
2022/05/26 08:45:49;;;;;;;0.30;0.20;;;20.30;97.10;;;;;;5081340;28;20458;-87
2022/05/26 08:48:35;;;;;;;0.30;0.20;;;20.10;98.10;;;;;;5086010;28;20791;-88
2022/05/26 08:51:06;;;;;;;0.80;0.60;;;20.30;97.20;;;;;;5085321;28;20447;-86
2022/05/26 08:53:37;;;;;;;0.40;0.20;;;20.10;97.40;;;;;;5083325;28;20469;-88
2022/05/26 08:56:06;;;;;;;0.30;0.20;;;20.20;97.60;;;;;;5081272;28;20482;-88
2022/05/26 08:58:40;;;;;;;0.40;0.20;;;20.20;99.60;;;;;;5083053;28;20465;-87
2022/05/26 09:01:11;;;;;;;0.30;0.20;;;20.20;98.50;;;;;;5080592;28;20685;-89
2022/05/26 09:03:39;;;;;;;0.40;0.20;;;20.50;99.40;;;;;;5082500;28;20486;-88
2022/05/26 09:06:10;;;;;;;0.40;0.20;;;20.30;96.60;;;;;;5083484;28;20464;-88
2022/05/26 09:14:28;;;;;;;0.30;0.20;;;20.30;97.70;;;;;;5063514;28;20503;-88
2022/05/26 09:16:59;;;;;;;0.40;0.30;;;20.00;97.10;;;;;;5079335;28;20511;-88
2022/05/26 09:19:32;;;;;;;0.30;0.20;;;19.90;96.30;;;;;;5077931;28;20468;-87
2022/05/26 09:22:00;;;;;;;0.30;0.20;;;20.20;97.90;;;;;;5078644;28;21201;-87
2022/05/26 09:24:37;;;;;;;0.40;0.20;;;20.40;97.00;;;;;;5083319;28;20920;-89
2022/05/26 09:27:24;;;;;;;0.30;0.20;;;20.40;96.60;;;;;;5077650;28;20525;-88
2022/05/26 09:29:53;;;;;;;0.40;0.20;;;20.80;98.10;;;;;;5079408;28;20459;-87
2022/05/26 09:32:30;;;;;;;0.40;0.20;;;21.10;96.80;;;;;;5078707;28;20459;-87
2022/05/26 09:35:06;;;;;;;0.40;0.20;;;20.60;95.00;;;;;;5079641;28;20473;-88
2022/05/26 09:37:40;;;;;;;0.40;0.20;;;20.60;96.20;;;;;;5099715;28;20456;-87
2022/05/26 09:40:20;;;;;;;0.40;0.30;;;21.10;95.80;;;;;;5099247;28;20457;-85
2022/05/26 09:42:52;;;;;;;0.40;0.20;;;22.10;97.40;;;;;;5100935;28;20449;-85
2022/05/26 09:45:21;;;;;;;0.40;0.40;;;22.50;94.60;;;;;;5100234;28;20459;-87
2022/05/26 09:47:54;;;;;;;0.40;0.30;;;22.20;94.20;;;;;;5100823;28;20492;-85
2022/05/26 09:50:45;;;;;;;0.40;0.20;;;22.50;94.10;;;;;;5104988;28;20462;-86
2022/05/26 09:53:13;;;;;;;0.40;0.20;;;22.30;93.70;;;;;;5104359;28;20490;-85
2022/05/26 09:55:48;;;;;;;0.40;0.30;;;22.10;94.30;;;;;;5104367;28;20479;-85
2022/05/26 09:58:28;;;;;;;0.40;0.20;;;22.00;93.20;;;;;;5082825;28;20447;-85
2022/05/26 10:01:01;;;;;;;0.50;0.30;;;21.70;94.90;;;;;;5081164;28;21184;-88
2022/05/26 10:03:38;;;;;;;0.40;0.20;;;21.40;94.50;;;;;;5083253;28;20462;-86
2022/05/26 10:06:16;;;;;;;0.40;0.20;;;21.30;93.30;;;;;;5077706;28;20473;-85
2022/05/26 10:09:02;;;;;;;0.40;0.30;;;21.10;94.30;;;;;;5076619;28;20449;-87
2022/05/26 10:11:48;;;;;;;0.40;0.20;;;20.80;92.70;;;;;;5081161;28;20482;-88
2022/05/26 10:14:41;;;;;;;0.40;0.20;;;20.80;91.70;;;;;;5072062;28;20460;-87
2022/05/26 10:17:18;;;;;;;0.40;0.20;;;21.10;89.20;;;;;;5075242;28;20513;-87
2022/05/26 10:20:03;;;;;;;0.40;0.20;;;21.20;90.50;;;;;;5080688;28;20471;-87
2022/05/26 10:22:41;;;;;;;0.40;0.20;;;21.40;91.80;;;;;;5088523;28;20493;-87
2022/05/26 10:25:23;;;;;;;0.40;0.30;;;21.50;89.60;;;;;;5088387;28;20462;-88
2022/05/26 10:28:05;;;;;;;0.40;0.20;;;21.90;90.50;;;;;;5087306;28;20506;-87
2022/05/26 10:30:44;;;;;;;0.40;0.20;;;21.90;89.70;;;;;;5079093;28;20738;-87
2022/05/26 10:33:45;;;;;;;0.40;0.20;;;22.10;90.80;;;;;;5081190;28;20526;-88
2022/05/26 10:36:22;;;;;;;0.40;0.23;;;22.20;85.30;;;;;;5084362;28;20489;-88
2022/05/26 10:39:08;;;;;;;0.40;0.20;;;22.70;89.00;;;;;;5084151;28;20467;-87
2022/05/26 10:41:41;;;;;;;0.40;0.20;;;22.90;90.80;;;;;;5080543;28;21005;-87
2022/05/26 10:44:20;;;;;;;0.40;0.40;;;22.70;89.90;;;;;;5082541;28;20500;-87
2022/05/26 10:46:54;;;;;;;0.40;0.20;;;22.90;90.90;;;;;;5073805;28;20454;-87
2022/05/26 10:49:34;;;;;;;0.40;0.20;;;22.90;82.50;;;;;;5076147;28;20435;-88
2022/05/26 10:52:07;;;;;;;0.40;0.27;;;23.20;88.30;;;;;;5077163;28;20459;-88
2022/05/26 10:54:41;;;;;;;0.40;0.30;;;23.40;86.80;;;;;;5084391;28;20519;-86
2022/05/26 10:57:16;;;;;;;0.40;0.20;;;23.20;81.70;;;;;;5080223;28;20439;-87
2022/05/26 10:59:47;;;;;;;0.40;0.20;;;23.10;83.60;;;;;;5076511;28;20459;-88
2022/05/26 11:02:20;;;;;;;0.40;0.20;;;23.00;83.40;;;;;;5074295;28;20983;-87
2022/05/26 11:04:56;;;;;;;0.40;0.30;;;22.70;84.60;;;;;;5086420;28;20996;-89
2022/05/26 11:07:32;;;;;;;0.40;0.20;;;22.10;81.40;;;;;;5092681;28;20474;-87
2022/05/26 11:10:05;;;;;;;0.40;0.20;;;21.90;82.90;;;;;;5100554;28;20442;-89
2022/05/26 11:12:38;;;;;;;0.40;0.20;;;21.90;83.70;;;;;;5106020;28;20456;-90
2022/05/26 11:18:00;;;;;;;0.40;0.20;;;22.10;83.90;;;;;;5090887;28;20422;-90
2022/05/26 11:20:37;;;;;;;0.40;0.20;;;22.20;86.00;;;;;;5083070;28;20502;-88
2022/05/26 11:23:04;;;;;;;0.40;0.20;;;22.40;80.10;;;;;;5079953;28;20474;-88
2022/05/26 11:25:35;;;;;;;0.40;0.30;;;22.30;82.70;;;;;;5082306;28;20447;-88
2022/05/26 11:28:08;;;;;;;0.40;0.20;;;23.20;81.70;;;;;;5080142;28;20448;-88
2022/05/26 11:36:24;;;;;;;0.40;0.20;;;23.10;80.90;;;;;;5083773;28;20514;-88
2022/05/26 11:38:54;;;;;;;0.40;0.20;;;23.20;79.00;;;;;;5073474;28;20494;-89
2022/05/26 11:41:28;;;;;;;0.40;0.20;;;23.50;80.50;;;;;;5076788;28;20463;-89
2022/05/26 11:44:03;;;;;;;0.40;0.20;;;23.20;78.20;;;;;;5081445;28;20524;-88
2022/05/26 11:47:12;;;;;;;0.40;0.20;;;22.80;78.30;;;;;;5082543;28;20462;-89
2022/05/26 11:50:03;;;;;;;0.40;0.23;;;22.90;80.90;;;;;;5078168;28;20818;-88
2022/05/26 11:53:05;;;;;;;0.40;0.20;;;22.40;76.20;;;;;;5073923;28;20452;-88
2022/05/26 11:55:45;;;;;;;0.90;0.50;;;22.30;79.70;;;;;;5077185;28;20482;-87
2022/05/26 11:58:28;;;;;;;0.40;0.20;;;22.90;78.80;;;;;;5082620;28;21009;-89
2022/05/26 12:01:12;;;;;;;0.40;0.20;;;23.50;78.50;;;;;;5079535;28;20523;-88
2022/05/26 12:03:50;;;;;;;0.40;0.20;;;23.60;77.70;;;;;;5086464;28;20424;-89
2022/05/26 12:06:33;;;;;;;0.40;0.30;;;23.50;76.80;;;;;;5073504;28;20442;-87
2022/05/26 12:09:04;;;;;;;0.40;0.20;;;24.00;82.40;;;;;;5100276;28;20486;-88
2022/05/26 12:11:58;;;;;;;0.40;0.20;;;23.30;79.60;;;;;;5091357;28;20443;-87
2022/05/26 12:14:29;;;;;;;0.40;0.30;;;22.80;80.90;;;;;;5089392;28;20945;-88
2022/05/26 12:17:38;;;;;;;0.40;0.20;;;22.70;82.70;;;;;;5087512;28;20478;-87
2022/05/26 12:20:23;;;;;;;0.40;0.20;;;22.60;77.80;;;;;;5065938;28;20459;-88
2022/05/26 12:23:16;;;;;;;0.40;0.20;;;22.30;79.40;;;;;;5085798;28;20476;-89
2022/05/26 12:25:46;;;;;;;0.40;0.20;;;22.20;81.30;;;;;;5080089;28;20828;-89
2022/05/26 12:28:31;;;;;;;0.40;0.20;;;22.70;82.90;;;;;;5083753;28;20446;-87
2022/05/26 12:31:09;;;;;;;0.40;0.20;;;23.00;83.70;;;;;;5077048;28;20466;-88
2022/05/26 12:34:02;;;;;;;0.50;0.47;;;23.50;83.20;;;;;;5073190;28;20450;-88
2022/05/26 12:36:45;;;;;;;0.40;0.20;;;23.80;80.40;;;;;;5073680;28;20494;-88
2022/05/26 12:39:43;;;;;;;0.50;0.30;;;23.60;80.20;;;;;;5076061;28;20566;-88
2022/05/26 12:42:22;;;;;;;0.40;0.20;;;23.40;79.50;;;;;;5076901;28;20460;-89
2022/05/26 12:45:16;;;;;;;0.40;0.20;;;22.90;77.00;;;;;;5078398;28;20512;-88
2022/05/26 12:48:14;;;;;;;0.40;0.20;;;22.80;79.70;;;;;;5068494;28;20437;-88
2022/05/26 12:50:45;;;;;;;0.40;0.20;;;23.20;80.00;;;;;;5038300;28;21014;-88
2022/05/26 12:53:18;;;;;;;0.40;0.20;;;22.90;81.30;;;;;;5082721;28;20489;-88
2022/05/26 12:55:50;;;;;;;0.40;0.20;;;23.00;80.80;;;;;;5084061;28;20486;-88
2022/05/26 12:58:21;;;;;;;0.40;0.20;;;23.00;78.60;;;;;;5078289;28;20447;-88
2022/05/26 13:01:00;;;;;;;0.40;0.20;;;22.60;78.60;;;;;;5081442;28;20474;-87
2022/05/26 13:03:32;;;;;;;0.40;0.20;;;22.50;78.20;;;;;;5088714;28;20786;-87
2022/05/26 13:06:07;;;;;;;0.40;0.30;;;23.00;80.90;;;;;;5083295;28;20451;-88
2022/05/26 13:08:45;;;;;;;0.40;0.20;;;23.40;76.80;;;;;;5083625;28;20450;-89
2022/05/26 13:11:17;;;;;;;0.40;0.20;;;23.20;77.40;;;;;;5080337;28;20489;-89
2022/05/26 13:13:51;;;;;;;0.40;0.20;;;22.60;79.50;;;;;;5086169;28;20445;-86
2022/05/26 13:16:27;;;;;;;0.40;0.20;;;22.70;79.00;;;;;;5081705;27;21833;-87
2022/05/26 13:18:56;;;;;;;0.40;0.20;;;23.00;78.60;;;;;;5079194;28;20819;-87
2022/05/26 13:21:30;;;;;;;0.40;0.20;;;23.50;75.70;;;;;;5080713;28;20974;-89
2022/05/26 13:23:57;;;;;;;0.40;0.20;;;23.50;74.30;;;;;;5078662;28;20483;-86
2022/05/26 13:26:28;;;;;;;0.40;0.20;;;23.30;77.20;;;;;;5083253;28;20804;-87
2022/05/26 13:29:00;;;;;;;0.40;0.20;;;22.60;76.20;;;;;;5081824;28;20481;-89
2022/05/26 13:34:15;;;;;;;0.40;0.30;;;22.20;74.00;;;;;;5076756;28;20921;-86
2022/05/26 13:36:44;;;;;;;0.40;0.23;;;22.40;78.70;;;;;;5077870;28;20498;-87
2022/05/26 13:39:14;;;;;;;0.40;0.20;;;22.30;76.80;;;;;;5072652;28;21228;-87
2022/05/26 13:41:44;;;;;;;0.40;0.20;;;22.20;77.70;;;;;;5078895;28;20473;-88
2022/05/26 13:44:15;;;;;;;0.40;0.20;;;22.30;78.60;;;;;;5074699;28;20458;-87
2022/05/26 13:46:46;;;;;;;0.40;0.20;;;22.30;79.80;;;;;;5073717;28;20451;-87
2022/05/26 13:49:32;;;;;;;0.40;0.20;;;22.70;82.40;;;;;;5076416;28;20459;-88
2022/05/26 13:52:01;;;;;;;0.40;0.20;;;22.80;77.50;;;;;;5075681;28;20491;-88
2022/05/26 13:54:38;;;;;;;0.40;0.20;;;23.00;82.80;;;;;;5078040;28;20459;-87